sensor_id;sensor_type;location;lat;lon;timestamp;pressure;altitude;pressure_sealevel;temperature;humidity
59411;BME280;45215;32.610;-115.482;2022-10-26T00:00:46;101372.72;;;22.04;47.84
59411;BME280;45215;32.610;-115.482;2022-10-26T00:03:12;101376.28;;;22.04;48.12
59411;BME280;45215;32.610;-115.482;2022-10-26T00:05:38;101370.69;;;22.06;47.75
59411;BME280;45215;32.610;-115.482;2022-10-26T00:08:04;101358.22;;;22.05;48.16
59411;BME280;45215;32.610;-115.482;2022-10-26T00:10:30;101358.03;;;22.06;48.17
59411;BME280;45215;32.610;-115.482;2022-10-26T00:12:58;101354.47;;;22.06;48.10
59411;BME280;45215;32.610;-115.482;2022-10-26T00:15:23;101357.03;;;22.08;48.36
59411;BME280;45215;32.610;-115.482;2022-10-26T00:17:49;101353.28;;;22.09;48.31
59411;BME280;45215;32.610;-115.482;2022-10-26T00:20:15;101350.44;;;22.10;47.92
59411;BME280;45215;32.610;-115.482;2022-10-26T00:22:41;101347.72;;;22.10;47.93
59411;BME280;45215;32.610;-115.482;2022-10-26T00:25:06;101344.16;;;22.10;48.28
59411;BME280;45215;32.610;-115.482;2022-10-26T00:27:33;101343.16;;;22.11;47.97
59411;BME280;45215;32.610;-115.482;2022-10-26T00:29:59;101342.97;;;22.12;48.43
59411;BME280;45215;32.610;-115.482;2022-10-26T00:32:25;101340.28;;;22.12;48.01
59411;BME280;45215;32.610;-115.482;2022-10-26T00:34:51;101339.28;;;22.13;48.06
59411;BME280;45215;32.610;-115.482;2022-10-26T00:37:16;101334.69;;;22.14;48.19
59411;BME280;45215;32.610;-115.482;2022-10-26T00:39:42;101336.56;;;22.13;47.85
59411;BME280;45215;32.610;-115.482;2022-10-26T00:42:12;101335.69;;;22.13;48.00
59411;BME280;45215;32.610;-115.482;2022-10-26T00:45:00;101341.97;;;22.13;47.90
59411;BME280;45215;32.610;-115.482;2022-10-26T00:49:52;101339.28;;;22.13;48.02
59411;BME280;45215;32.610;-115.482;2022-10-26T00:52:19;101333.88;;;22.13;47.88
59411;BME280;45215;32.610;-115.482;2022-10-26T00:54:45;101335.53;;;22.14;48.11
59411;BME280;45215;32.610;-115.482;2022-10-26T00:57:12;101330.28;;;22.13;47.97
59411;BME280;45215;32.610;-115.482;2022-10-26T00:59:40;101333.88;;;22.13;47.72
59411;BME280;45215;32.610;-115.482;2022-10-26T01:02:06;101335.69;;;22.13;48.12
59411;BME280;45215;32.610;-115.482;2022-10-26T01:04:32;101328.47;;;22.13;48.18
59411;BME280;45215;32.610;-115.482;2022-10-26T01:06:59;101335.69;;;22.13;47.88
59411;BME280;45215;32.610;-115.482;2022-10-26T01:09:25;101327.59;;;22.13;48.12
59411;BME280;45215;32.610;-115.482;2022-10-26T01:11:51;101333.00;;;22.13;47.86
59411;BME280;45215;32.610;-115.482;2022-10-26T01:14:17;101330.50;;;22.11;48.08
59411;BME280;45215;32.610;-115.482;2022-10-26T01:22:07;101330.50;;;22.11;47.82
59411;BME280;45215;32.610;-115.482;2022-10-26T01:24:51;101332.34;;;22.11;47.94
59411;BME280;45215;32.610;-115.482;2022-10-26T01:30:14;101331.53;;;22.10;48.17
59411;BME280;45215;32.610;-115.482;2022-10-26T01:40:36;101337.91;;;22.09;48.13
59411;BME280;45215;32.610;-115.482;2022-10-26T01:43:06;101347.06;;;22.08;47.99
59411;BME280;45215;32.610;-115.482;2022-10-26T01:45:32;101336.25;;;22.08;48.29
59411;BME280;45215;32.610;-115.482;2022-10-26T01:47:58;101343.31;;;22.09;48.09
59411;BME280;45215;32.610;-115.482;2022-10-26T01:50:26;101348.91;;;22.08;47.96
59411;BME280;45215;32.610;-115.482;2022-10-26T01:52:53;101348.06;;;22.07;47.94
59411;BME280;45215;32.610;-115.482;2022-10-26T02:00:48;101354.47;;;22.06;48.05
59411;BME280;45215;32.610;-115.482;2022-10-26T02:03:24;101355.31;;;22.06;47.74
59411;BME280;45215;32.610;-115.482;2022-10-26T02:06:18;101359.06;;;22.05;48.05
59411;BME280;45215;32.610;-115.482;2022-10-26T02:11:42;101355.50;;;22.05;47.79
59411;BME280;45215;32.610;-115.482;2022-10-26T02:16:46;101352.81;;;22.05;47.98
59411;BME280;45215;32.610;-115.482;2022-10-26T02:21:45;101351.09;;;22.04;47.75
59411;BME280;45215;32.610;-115.482;2022-10-26T02:24:12;101352.13;;;22.03;47.95
59411;BME280;45215;32.610;-115.482;2022-10-26T02:26:38;101351.09;;;22.04;47.69
59411;BME280;45215;32.610;-115.482;2022-10-26T02:29:06;101350.28;;;22.03;47.59
59411;BME280;45215;32.610;-115.482;2022-10-26T02:31:33;101356.50;;;22.04;47.83
59411;BME280;45215;32.610;-115.482;2022-10-26T02:34:01;101354.84;;;22.03;47.94
59411;BME280;45215;32.610;-115.482;2022-10-26T02:36:28;101355.66;;;22.03;47.91
59411;BME280;45215;32.610;-115.482;2022-10-26T02:38:55;101349.44;;;22.03;47.55
59411;BME280;45215;32.610;-115.482;2022-10-26T02:41:21;101360.25;;;22.03;47.52
59411;BME280;45215;32.610;-115.482;2022-10-26T02:43:52;101360.25;;;22.03;47.63
59411;BME280;45215;32.610;-115.482;2022-10-26T02:46:21;101362.78;;;22.04;47.67
59411;BME280;45215;32.610;-115.482;2022-10-26T02:48:49;101362.94;;;22.03;47.39
59411;BME280;45215;32.610;-115.482;2022-10-26T02:51:19;101362.78;;;22.04;47.61
59411;BME280;45215;32.610;-115.482;2022-10-26T02:53:53;101361.91;;;22.04;47.41
59411;BME280;45215;32.610;-115.482;2022-10-26T02:59:04;101358.22;;;22.05;47.23
59411;BME280;45215;32.610;-115.482;2022-10-26T03:01:31;101361.06;;;22.03;47.51
59411;BME280;45215;32.610;-115.482;2022-10-26T03:03:58;101357.38;;;22.04;47.44
59411;BME280;45215;32.610;-115.482;2022-10-26T03:06:24;101351.81;;;21.98;47.36
59411;BME280;45215;32.610;-115.482;2022-10-26T03:08:50;101351.28;;;22.02;47.34
59411;BME280;45215;32.610;-115.482;2022-10-26T03:11:16;101352.13;;;22.03;47.54
59411;BME280;45215;32.610;-115.482;2022-10-26T03:13:42;101357.53;;;22.03;47.33
59411;BME280;45215;32.610;-115.482;2022-10-26T03:16:08;101359.41;;;22.02;47.48
59411;BME280;45215;32.610;-115.482;2022-10-26T03:18:34;101357.69;;;22.01;47.39
59411;BME280;45215;32.610;-115.482;2022-10-26T03:21:00;101371.03;;;22.03;47.09
59411;BME280;45215;32.610;-115.482;2022-10-26T03:23:26;101357.53;;;22.03;47.30
59411;BME280;45215;32.610;-115.482;2022-10-26T03:25:55;101363.97;;;22.02;47.28
59411;BME280;45215;32.610;-115.482;2022-10-26T03:28:21;101363.97;;;22.02;47.10
59411;BME280;45215;32.610;-115.482;2022-10-26T03:30:46;101370.22;;;22.02;47.47
59411;BME280;45215;32.610;-115.482;2022-10-26T03:33:12;101363.09;;;22.01;47.26
59411;BME280;45215;32.610;-115.482;2022-10-26T03:35:38;101359.56;;;22.01;47.29
59411;BME280;45215;32.610;-115.482;2022-10-26T03:38:04;101355.19;;;22.00;47.07
59411;BME280;45215;32.610;-115.482;2022-10-26T03:40:30;101360.59;;;22.00;47.14
59411;BME280;45215;32.610;-115.482;2022-10-26T03:42:55;101365.16;;;21.99;47.30
59411;BME280;45215;32.610;-115.482;2022-10-26T03:45:21;101366.00;;;22.00;47.26
59411;BME280;45215;32.610;-115.482;2022-10-26T03:47:47;101374.09;;;22.00;46.97
59411;BME280;45215;32.610;-115.482;2022-10-26T03:50:15;101367.84;;;21.99;47.13
59411;BME280;45215;32.610;-115.482;2022-10-26T03:52:41;101368.69;;;22.00;47.01
59411;BME280;45215;32.610;-115.482;2022-10-26T03:55:07;101373.06;;;22.01;46.85
59411;BME280;45215;32.610;-115.482;2022-10-26T03:57:33;101369.72;;;21.99;47.00
59411;BME280;45215;32.610;-115.482;2022-10-26T03:59:59;101366.00;;;22.00;47.08
59411;BME280;45215;32.610;-115.482;2022-10-26T04:02:24;101371.41;;;22.00;46.86
59411;BME280;45215;32.610;-115.482;2022-10-26T04:04:50;101367.66;;;22.01;46.78
59411;BME280;45215;32.610;-115.482;2022-10-26T04:07:16;101359.75;;;21.99;46.82
59411;BME280;45215;32.610;-115.482;2022-10-26T04:09:42;101363.28;;;22.00;46.85
59411;BME280;45215;32.610;-115.482;2022-10-26T04:12:07;101365.16;;;21.99;46.75
59411;BME280;45215;32.610;-115.482;2022-10-26T04:14:33;101364.31;;;21.99;46.83
59411;BME280;45215;32.610;-115.482;2022-10-26T04:16:59;101369.72;;;21.99;46.62
59411;BME280;45215;32.610;-115.482;2022-10-26T04:19:25;101369.72;;;21.99;46.70
59411;BME280;45215;32.610;-115.482;2022-10-26T04:21:50;101367.03;;;21.99;46.83
59411;BME280;45215;32.610;-115.482;2022-10-26T04:24:16;101369.72;;;21.99;46.41
59411;BME280;45215;32.610;-115.482;2022-10-26T04:26:42;101369.72;;;21.99;46.48
59411;BME280;45215;32.610;-115.482;2022-10-26T04:29:09;101369.72;;;21.99;46.24
59411;BME280;45215;32.610;-115.482;2022-10-26T04:31:35;101370.72;;;21.98;46.55
59411;BME280;45215;32.610;-115.482;2022-10-26T04:34:01;101363.44;;;21.98;46.48
59411;BME280;45215;32.610;-115.482;2022-10-26T04:36:26;101375.13;;;21.99;46.51
59411;BME280;45215;32.610;-115.482;2022-10-26T04:38:52;101370.72;;;21.98;46.55
59411;BME280;45215;32.610;-115.482;2022-10-26T04:41:18;101371.75;;;21.97;46.59
59411;BME280;45215;32.610;-115.482;2022-10-26T04:43:44;101374.44;;;21.97;46.64
59411;BME280;45215;32.610;-115.482;2022-10-26T04:46:09;101371.75;;;21.97;46.22
59411;BME280;45215;32.610;-115.482;2022-10-26T04:48:38;101378.81;;;21.98;46.04
59411;BME280;45215;32.610;-115.482;2022-10-26T04:51:04;101376.13;;;21.98;46.09
59411;BME280;45215;32.610;-115.482;2022-10-26T04:53:30;101381.53;;;21.98;46.48
59411;BME280;45215;32.610;-115.482;2022-10-26T04:55:59;101377.97;;;21.97;46.26
59411;BME280;45215;32.610;-115.482;2022-10-26T04:58:26;101376.13;;;21.98;46.14
59411;BME280;45215;32.610;-115.482;2022-10-26T05:00:52;101369.03;;;21.97;46.31
59411;BME280;45215;32.610;-115.482;2022-10-26T05:03:18;101371.75;;;21.97;45.93
59411;BME280;45215;32.610;-115.482;2022-10-26T05:05:44;101368.00;;;21.98;45.89
59411;BME280;45215;32.610;-115.482;2022-10-26T05:08:09;101369.88;;;21.97;46.00
59411;BME280;45215;32.610;-115.482;2022-10-26T05:10:35;101371.56;;;21.98;45.86
59411;BME280;45215;32.610;-115.482;2022-10-26T05:13:01;101368.84;;;21.98;45.78
59411;BME280;45215;32.610;-115.482;2022-10-26T05:15:27;101373.41;;;21.98;45.61
59411;BME280;45215;32.610;-115.482;2022-10-26T05:17:57;101362.63;;;21.98;45.67
59411;BME280;45215;32.610;-115.482;2022-10-26T05:20:23;101363.97;;;21.86;45.11
59411;BME280;45215;32.610;-115.482;2022-10-26T05:22:54;101358.56;;;21.86;43.06
59411;BME280;45215;32.610;-115.482;2022-10-26T05:25:20;101365.50;;;21.96;46.36
59411;BME280;45215;32.610;-115.482;2022-10-26T05:27:45;101362.25;;;22.01;46.79
59411;BME280;45215;32.610;-115.482;2022-10-26T05:30:11;101365.63;;;22.03;46.84
59411;BME280;45215;32.610;-115.482;2022-10-26T05:32:37;101360.06;;;22.04;47.26
59411;BME280;45215;32.610;-115.482;2022-10-26T05:35:03;101363.63;;;22.05;47.09
59411;BME280;45215;32.610;-115.482;2022-10-26T05:37:29;101356.34;;;22.05;46.90
59411;BME280;45215;32.610;-115.482;2022-10-26T05:39:55;101358.84;;;22.07;47.32
59411;BME280;45215;32.610;-115.482;2022-10-26T05:42:20;101356.16;;;22.07;47.14
59411;BME280;45215;32.610;-115.482;2022-10-26T05:44:46;101358.69;;;22.09;47.13
59411;BME280;45215;32.610;-115.482;2022-10-26T05:47:12;101354.03;;;21.78;44.46
59411;BME280;45215;32.610;-115.482;2022-10-26T05:49:37;101351.84;;;20.67;42.90
59411;BME280;45215;32.610;-115.482;2022-10-26T05:52:03;101349.81;;;20.61;49.76
59411;BME280;45215;32.610;-115.482;2022-10-26T05:54:29;101358.25;;;20.90;53.91
59411;BME280;45215;32.610;-115.482;2022-10-26T05:56:55;101338.09;;;21.11;55.10
59411;BME280;45215;32.610;-115.482;2022-10-26T05:59:21;101347.53;;;21.23;55.23
59411;BME280;45215;32.610;-115.482;2022-10-26T06:06:52;101332.50;;;20.21;50.37
59411;BME280;45215;32.610;-115.482;2022-10-26T06:09:18;101329.25;;;20.52;54.80
59411;BME280;45215;32.610;-115.482;2022-10-26T06:11:44;101332.97;;;20.75;57.90
59411;BME280;45215;32.610;-115.482;2022-10-26T06:14:11;101332.16;;;20.91;58.27
59411;BME280;45215;32.610;-115.482;2022-10-26T06:16:40;101330.84;;;21.03;57.78
59411;BME280;45215;32.610;-115.482;2022-10-26T06:24:50;101329.81;;;21.37;54.86
59411;BME280;45215;32.610;-115.482;2022-10-26T06:32:07;101324.22;;;21.55;52.65
59411;BME280;45215;32.610;-115.482;2022-10-26T06:34:34;101316.44;;;21.60;52.44
59411;BME280;45215;32.610;-115.482;2022-10-26T06:37:01;101323.19;;;21.64;51.86
59411;BME280;45215;32.610;-115.482;2022-10-26T06:39:27;101312.03;;;21.67;50.73
59411;BME280;45215;32.610;-115.482;2022-10-26T06:41:54;101310.84;;;21.70;50.92
59411;BME280;45215;32.610;-115.482;2022-10-26T06:44:20;101304.25;;;21.72;50.61
59411;BME280;45215;32.610;-115.482;2022-10-26T06:52:19;101305.25;;;21.79;50.03
59411;BME280;45215;32.610;-115.482;2022-10-26T06:54:47;101309.47;;;21.82;49.58
59411;BME280;45215;32.610;-115.482;2022-10-26T06:57:14;101306.59;;;21.83;49.99
59411;BME280;45215;32.610;-115.482;2022-10-26T06:59:59;101305.59;;;21.84;49.48
59411;BME280;45215;32.610;-115.482;2022-10-26T07:02:26;101310.78;;;21.86;48.97
59411;BME280;45215;32.610;-115.482;2022-10-26T07:04:52;101309.81;;;21.87;48.89
59411;BME280;45215;32.610;-115.482;2022-10-26T07:07:21;101315.03;;;21.89;49.21
59411;BME280;45215;32.610;-115.482;2022-10-26T07:09:48;101315.53;;;21.92;49.19
59411;BME280;45215;32.610;-115.482;2022-10-26T07:12:14;101309.97;;;21.94;48.91
59411;BME280;45215;32.610;-115.482;2022-10-26T07:14:40;101307.25;;;21.94;48.77
59411;BME280;45215;32.610;-115.482;2022-10-26T07:17:06;101307.25;;;21.94;48.47
59411;BME280;45215;32.610;-115.482;2022-10-26T07:19:33;101316.22;;;21.94;48.90
59411;BME280;45215;32.610;-115.482;2022-10-26T07:21:58;101317.22;;;21.93;47.91
59411;BME280;45215;32.610;-115.482;2022-10-26T07:24:25;101309.13;;;21.93;48.32
59411;BME280;45215;32.610;-115.482;2022-10-26T07:26:54;101307.25;;;21.94;48.59
59411;BME280;45215;32.610;-115.482;2022-10-26T07:29:20;101308.25;;;21.93;48.25
59411;BME280;45215;32.610;-115.482;2022-10-26T07:31:46;101310.13;;;21.92;48.24
59411;BME280;45215;32.610;-115.482;2022-10-26T07:34:12;101302.84;;;21.93;48.28
59411;BME280;45215;32.610;-115.482;2022-10-26T07:36:38;101301.19;;;21.92;48.32
59411;BME280;45215;32.610;-115.482;2022-10-26T07:39:04;101302.22;;;21.91;47.99
59411;BME280;45215;32.610;-115.482;2022-10-26T07:41:30;101297.66;;;21.91;47.85
59411;BME280;45215;32.610;-115.482;2022-10-26T07:43:55;101293.09;;;21.92;47.54
59411;BME280;45215;32.610;-115.482;2022-10-26T07:46:21;101302.22;;;21.91;47.48
59411;BME280;45215;32.610;-115.482;2022-10-26T07:48:47;101292.41;;;21.90;48.01
59411;BME280;45215;32.610;-115.482;2022-10-26T07:51:13;101300.50;;;21.90;47.35
59411;BME280;45215;32.610;-115.482;2022-10-26T07:53:39;101308.63;;;21.90;47.17
59411;BME280;45215;32.610;-115.482;2022-10-26T07:56:05;101305.91;;;21.90;47.42
59411;BME280;45215;32.610;-115.482;2022-10-26T07:58:31;101309.63;;;21.89;47.61
59411;BME280;45215;32.610;-115.482;2022-10-26T08:00:57;101306.94;;;21.89;47.18
59411;BME280;45215;32.610;-115.482;2022-10-26T08:03:29;101304.25;;;21.89;47.35
59411;BME280;45215;32.610;-115.482;2022-10-26T08:05:55;101304.25;;;21.89;47.22
59411;BME280;45215;32.610;-115.482;2022-10-26T08:08:20;101307.97;;;21.88;47.26
59411;BME280;45215;32.610;-115.482;2022-10-26T08:10:47;101307.97;;;21.88;47.34
59411;BME280;45215;32.610;-115.482;2022-10-26T08:13:13;101309.81;;;21.87;47.38
59411;BME280;45215;32.610;-115.482;2022-10-26T08:15:39;101308.97;;;21.87;46.87
59411;BME280;45215;32.610;-115.482;2022-10-26T08:18:05;101311.66;;;21.87;46.48
59411;BME280;45215;32.610;-115.482;2022-10-26T08:20:31;101310.78;;;21.86;46.66
59411;BME280;45215;32.610;-115.482;2022-10-26T08:22:57;101301.84;;;21.86;46.86
59411;BME280;45215;32.610;-115.482;2022-10-26T08:25:23;101303.56;;;21.87;46.86
59411;BME280;45215;32.610;-115.482;2022-10-26T08:27:51;101291.06;;;21.86;46.11
59411;BME280;45215;32.610;-115.482;2022-10-26T08:30:18;101296.47;;;21.86;46.07
59411;BME280;45215;32.610;-115.482;2022-10-26T08:32:44;101307.25;;;21.86;46.87
59411;BME280;45215;32.610;-115.482;2022-10-26T08:35:09;101309.13;;;21.85;46.57
59411;BME280;45215;32.610;-115.482;2022-10-26T08:37:35;101309.28;;;21.83;46.47
59411;BME280;45215;32.610;-115.482;2022-10-26T08:40:04;101308.28;;;21.84;46.39
59411;BME280;45215;32.610;-115.482;2022-10-26T08:42:42;101292.09;;;21.84;46.10
59411;BME280;45215;32.610;-115.482;2022-10-26T08:45:11;101295.78;;;21.83;46.36
59411;BME280;45215;32.610;-115.482;2022-10-26T08:47:42;101301.19;;;21.83;46.45
59411;BME280;45215;32.610;-115.482;2022-10-26T08:50:44;101302.22;;;21.82;46.16
59411;BME280;45215;32.610;-115.482;2022-10-26T08:53:03;101304.91;;;21.82;46.45
59411;BME280;45215;32.610;-115.482;2022-10-26T08:55:36;101322.09;;;21.81;45.39
59411;BME280;45215;32.610;-115.482;2022-10-26T08:58:04;101320.09;;;21.83;46.43
59411;BME280;45215;32.610;-115.482;2022-10-26T09:00:31;101318.41;;;21.82;46.22
59411;BME280;45215;32.610;-115.482;2022-10-26T09:02:57;101297.81;;;21.81;46.05
59411;BME280;45215;32.610;-115.482;2022-10-26T09:05:26;101298.66;;;21.82;46.04
59411;BME280;45215;32.610;-115.482;2022-10-26T09:18:06;101287.00;;;21.81;45.75
59411;BME280;45215;32.610;-115.482;2022-10-26T09:20:41;101278.06;;;21.81;46.01
59411;BME280;45215;32.610;-115.482;2022-10-26T09:25:44;101278.25;;;21.79;45.86
59411;BME280;45215;32.610;-115.482;2022-10-26T09:28:15;101275.56;;;21.79;45.74
59411;BME280;45215;32.610;-115.482;2022-10-26T09:30:45;101274.53;;;21.80;45.93
59411;BME280;45215;32.610;-115.482;2022-10-26T09:33:12;101271.00;;;21.80;45.82
59411;BME280;45215;32.610;-115.482;2022-10-26T09:35:42;101266.41;;;21.80;46.03
59411;BME280;45215;32.610;-115.482;2022-10-26T09:38:17;101257.47;;;21.80;45.75
59411;BME280;45215;32.610;-115.482;2022-10-26T09:43:13;101260.34;;;21.78;45.70
59411;BME280;45215;32.610;-115.482;2022-10-26T09:45:44;101262.06;;;21.79;46.01
59411;BME280;45215;32.610;-115.482;2022-10-26T09:48:13;101264.91;;;21.78;45.69
59411;BME280;45215;32.610;-115.482;2022-10-26T09:50:43;101247.88;;;21.77;45.49
59411;BME280;45215;32.610;-115.482;2022-10-26T09:53:11;101251.41;;;21.78;45.50
59411;BME280;45215;32.610;-115.482;2022-10-26T09:55:43;101256.81;;;21.78;45.23
59411;BME280;45215;32.610;-115.482;2022-10-26T09:58:12;101259.50;;;21.78;44.73
59411;BME280;45215;32.610;-115.482;2022-10-26T10:00:39;101260.34;;;21.78;45.63
59411;BME280;45215;32.610;-115.482;2022-10-26T10:03:16;101269.47;;;21.77;45.48
59411;BME280;45215;32.610;-115.482;2022-10-26T10:05:42;101267.81;;;21.76;45.48
59411;BME280;45215;32.610;-115.482;2022-10-26T10:08:15;101270.50;;;21.76;45.58
59411;BME280;45215;32.610;-115.482;2022-10-26T10:13:20;101259.88;;;21.75;45.51
59411;BME280;45215;32.610;-115.482;2022-10-26T10:15:53;101256.31;;;21.74;45.34
59411;BME280;45215;32.610;-115.482;2022-10-26T10:18:20;101250.09;;;21.74;45.70
59411;BME280;45215;32.610;-115.482;2022-10-26T10:20:50;101246.56;;;21.73;45.67
59411;BME280;45215;32.610;-115.482;2022-10-26T10:23:24;101249.25;;;21.73;45.71
59411;BME280;45215;32.610;-115.482;2022-10-26T10:26:12;101246.56;;;21.73;45.14
59411;BME280;45215;32.610;-115.482;2022-10-26T10:28:37;101231.03;;;21.67;44.91
59411;BME280;45215;32.610;-115.482;2022-10-26T10:31:05;101234.03;;;21.72;45.52
59411;BME280;45215;32.610;-115.482;2022-10-26T10:33:42;101222.41;;;21.72;45.00
59411;BME280;45215;32.610;-115.482;2022-10-26T10:36:14;101221.56;;;21.71;44.93
59411;BME280;45215;32.610;-115.482;2022-10-26T10:38:41;101222.41;;;21.72;45.14
59411;BME280;45215;32.610;-115.482;2022-10-26T10:43:47;101214.47;;;21.70;45.39
59411;BME280;45215;32.610;-115.482;2022-10-26T10:46:18;101207.41;;;21.69;45.21
59411;BME280;45215;32.610;-115.482;2022-10-26T10:48:45;101200.31;;;21.68;45.08
59411;BME280;45215;32.610;-115.482;2022-10-26T10:51:12;101203.03;;;21.68;45.12
59411;BME280;45215;32.610;-115.482;2022-10-26T10:53:43;101207.41;;;21.69;44.92
59411;BME280;45215;32.610;-115.482;2022-10-26T10:56:17;101200.31;;;21.68;44.75
59411;BME280;45215;32.610;-115.482;2022-10-26T11:01:14;101207.41;;;21.69;45.03
59411;BME280;45215;32.610;-115.482;2022-10-26T11:06:24;101198.63;;;21.67;45.32
59411;BME280;45215;32.610;-115.482;2022-10-26T11:09:09;101208.59;;;21.67;44.94
59411;BME280;45215;32.610;-115.482;2022-10-26T11:11:41;101213.00;;;21.68;45.12
59411;BME280;45215;32.610;-115.482;2022-10-26T11:14:22;101212.13;;;21.67;45.08
59411;BME280;45215;32.610;-115.482;2022-10-26T11:16:51;101214.00;;;21.67;45.04
59411;BME280;45215;32.610;-115.482;2022-10-26T11:21:54;101206.91;;;21.66;44.13
59411;BME280;45215;32.610;-115.482;2022-10-26T11:26:53;101220.22;;;21.67;45.07
59411;BME280;45215;32.610;-115.482;2022-10-26T11:29:25;101219.56;;;21.65;44.89
59411;BME280;45215;32.610;-115.482;2022-10-26T11:32:29;101221.25;;;21.66;44.17
59411;BME280;45215;32.610;-115.482;2022-10-26T11:35:00;101228.50;;;21.66;44.98
59411;BME280;45215;32.610;-115.482;2022-10-26T11:37:31;101234.75;;;21.66;45.24
59411;BME280;45215;32.610;-115.482;2022-10-26T11:40:12;101222.28;;;21.65;44.73
59411;BME280;45215;32.610;-115.482;2022-10-26T11:42:42;101233.09;;;21.65;44.92
59411;BME280;45215;32.610;-115.482;2022-10-26T11:47:39;101243.03;;;21.65;44.81
59411;BME280;45215;32.610;-115.482;2022-10-26T11:52:36;101235.94;;;21.64;44.56
59411;BME280;45215;32.610;-115.482;2022-10-26T11:55:03;101234.94;;;21.65;44.42
59411;BME280;45215;32.610;-115.482;2022-10-26T11:57:30;101238.63;;;21.64;44.61
59411;BME280;45215;32.610;-115.482;2022-10-26T12:00:00;101234.44;;;21.61;44.77
59411;BME280;45215;32.610;-115.482;2022-10-26T12:02:27;101233.44;;;21.62;44.32
59411;BME280;45215;32.610;-115.482;2022-10-26T12:04:55;101236.97;;;21.63;44.64
59411;BME280;45215;32.610;-115.482;2022-10-26T12:07:23;101246.94;;;21.62;45.01
59411;BME280;45215;32.610;-115.482;2022-10-26T12:09:51;101256.88;;;21.61;45.07
59411;BME280;45215;32.610;-115.482;2022-10-26T12:12:22;101257.06;;;21.60;45.06
59411;BME280;45215;32.610;-115.482;2022-10-26T12:14:58;101249.97;;;21.59;44.93
59411;BME280;45215;32.610;-115.482;2022-10-26T12:18:29;101253.69;;;21.58;44.59
59411;BME280;45215;32.610;-115.482;2022-10-26T12:23:08;101258.41;;;21.56;43.92
59411;BME280;45215;32.610;-115.482;2022-10-26T12:25:35;101253.88;;;21.56;44.66
59411;BME280;45215;32.610;-115.482;2022-10-26T12:28:00;101254.03;;;21.55;44.77
59411;BME280;45215;32.610;-115.482;2022-10-26T12:30:27;101248.81;;;21.53;44.40
59411;BME280;45215;32.610;-115.482;2022-10-26T12:32:54;101255.22;;;21.52;44.84
59411;BME280;45215;32.610;-115.482;2022-10-26T12:38:53;101254.38;;;21.52;44.50
59411;BME280;45215;32.610;-115.482;2022-10-26T12:40:47;101248.13;;;21.51;44.68
59411;BME280;45215;32.610;-115.482;2022-10-26T12:45:40;101243.94;;;21.49;44.83
59411;BME280;45215;32.610;-115.482;2022-10-26T12:48:37;101247.66;;;21.48;44.67
59411;BME280;45215;32.610;-115.482;2022-10-26T12:54:31;101258.44;;;21.48;44.30
59411;BME280;45215;32.610;-115.482;2022-10-26T12:56:54;101265.69;;;21.47;43.87
59411;BME280;45215;32.610;-115.482;2022-10-26T12:59:32;101267.38;;;21.48;43.91
59411;BME280;45215;32.610;-115.482;2022-10-26T13:09:43;101274.81;;;21.46;44.31
59411;BME280;45215;32.610;-115.482;2022-10-26T13:12:10;101275.84;;;21.45;44.03
59411;BME280;45215;32.610;-115.482;2022-10-26T13:14:37;101280.41;;;21.45;44.21
59411;BME280;45215;32.610;-115.482;2022-10-26T13:17:05;101280.41;;;21.45;43.79
59411;BME280;45215;32.610;-115.482;2022-10-26T13:22:29;101289.47;;;21.44;44.21
59411;BME280;45215;32.610;-115.482;2022-10-26T13:24:55;101289.47;;;21.44;43.96
59411;BME280;45215;32.610;-115.482;2022-10-26T13:27:26;101292.19;;;21.44;43.61
59411;BME280;45215;32.610;-115.482;2022-10-26T13:32:30;101293.22;;;21.43;43.86
59411;BME280;45215;32.610;-115.482;2022-10-26T13:34:58;101302.31;;;21.42;43.73
59411;BME280;45215;32.610;-115.482;2022-10-26T13:37:25;101301.47;;;21.41;43.76
59411;BME280;45215;32.610;-115.482;2022-10-26T13:39:52;101298.94;;;21.39;43.74
59411;BME280;45215;32.610;-115.482;2022-10-26T13:42:23;101303.66;;;21.37;44.13
59411;BME280;45215;32.610;-115.482;2022-10-26T13:47:21;101314.47;;;21.37;43.82
59411;BME280;45215;32.610;-115.482;2022-10-26T13:49:49;101312.59;;;21.38;42.96
59411;BME280;45215;32.610;-115.482;2022-10-26T13:52:18;101305.34;;;21.38;43.31
59411;BME280;45215;32.610;-115.482;2022-10-26T13:54:57;101313.63;;;21.37;43.50
59411;BME280;45215;32.610;-115.482;2022-10-26T13:57:33;101301.31;;;21.34;43.83
59411;BME280;45215;32.610;-115.482;2022-10-26T14:00:00;101312.25;;;21.33;43.75
59411;BME280;45215;32.610;-115.482;2022-10-26T14:02:32;101313.28;;;21.32;42.98
59411;BME280;45215;32.610;-115.482;2022-10-26T14:05:01;101314.13;;;21.32;43.90
59411;BME280;45215;32.610;-115.482;2022-10-26T14:07:49;101296.94;;;21.25;43.50
59411;BME280;45215;32.610;-115.482;2022-10-26T14:10:31;101305.34;;;21.30;43.49
59411;BME280;45215;32.610;-115.482;2022-10-26T14:12:58;101305.53;;;21.29;43.58
59411;BME280;45215;32.610;-115.482;2022-10-26T14:15:29;101312.81;;;21.28;43.95
59411;BME280;45215;32.610;-115.482;2022-10-26T14:17:56;101309.41;;;21.26;43.77
59411;BME280;45215;32.610;-115.482;2022-10-26T14:20:23;101313.13;;;21.25;43.84
59411;BME280;45215;32.610;-115.482;2022-10-26T14:22:50;101305.69;;;21.27;43.37
59411;BME280;45215;32.610;-115.482;2022-10-26T14:25:34;101309.25;;;21.28;43.73